Latest Weather Observations for Wilcannia Airport

IDN60801

Issued at 12:05 pm EST Thursday 2 October 2014 (issued every 30 minutes, with the page automatically refreshed every 10 minutes)

About weather observations | Map of weather stations | Latest weather observations for NSW | Other Formats
Station Details ID: 046012 Name: WILCANNIA AERODROME AWS Lat: -31.52 Lon: 143.38 Height: 94.3 m
Data from the previous 72 hours. | See also: Recent months for locations in New South Wales
Date/Time
EST
Temp
°C
App
Temp
°C
Dew
Point
Rel
Hum
%
Delta-T
°C
Wind Press
QNH
hPa
Press
MSL
hPa
Rain
since 9 am
mm
Dir
 
Spd
km/h
Gust
km/h
Spd
kts
Gust
kts
02/11:00am 20.3 14.9 1.2 28 8.7 SSE 19 30 10 16 1025.0 1024.7 0.0
02/10:30am 19.3 14.2 0.8 29 8.3 S 17 20 9 11 1025.3 1025.0 0.0
02/10:00am 19.3 14.1 0.4 28 8.4 SE 17 24 9 13 1025.5 1025.2 0.0
02/09:30am 18.3 13.8 0.0 29 8.0 SE 13 17 7 9 1025.6 1025.3 0.0
02/09:00am 17.5 13.4 -0.2 30 7.6 ESE 11 17 6 9 1025.6 1025.3 0.0
02/08:30am 15.7 11.6 -0.5 33 6.8 SE 11 15 6 8 1025.7 1025.4 0.0
02/08:00am 14.0 9.4 -0.8 36 6.1 SSE 13 17 7 9 1025.6 1025.3 0.0
02/07:30am 12.6 8.6 0.4 43 5.1 SE 11 17 6 9 1025.5 1025.2 0.0
02/07:00am 9.1 6.1 2.0 61 3.0 S 7 9 4 5 1025.3 1025.0 0.0
02/06:30am 6.5 2.9 0.8 67 2.3 S 9 9 5 5 1024.9 1024.6 0.0
02/06:00am 5.9 2.3 0.7 69 2.0 SSW 9 11 5 6 1024.7 1024.4 0.0
02/05:30am 6.1 3.0 1.1 70 2.0 SSW 7 9 4 5 1024.6 1024.3 0.0
02/05:00am 6.5 3.3 0.6 66 2.3 S 7 9 4 5 1024.4 1024.1 0.0
02/04:30am 6.3 3.1 0.6 67 2.2 S 7 7 4 4 1024.2 1023.9 0.0
02/04:00am 5.5 1.9 0.5 70 1.9 SSE 9 11 5 6 1024.1 1023.8 0.0
02/03:30am 6.3 2.6 -0.2 63 2.5 S 9 9 5 5 1024.0 1023.7 0.0
02/03:00am 8.1 4.8 -0.1 56 3.2 S 7 9 4 5 1024.1 1023.8 0.0
02/02:30am 8.3 4.9 -0.4 54 3.4 S 7 9 4 5 1024.4 1024.1 0.0
02/02:00am 8.4 4.1 -2.0 48 3.9 S 11 11 6 6 1024.7 1024.4 0.0
02/01:30am 9.2 4.5 -2.1 45 4.3 S 13 13 7 7 1024.8 1024.5 0.0
02/01:00am 9.5 4.8 -2.1 44 4.4 S 13 13 7 7 1025.0 1024.7 0.0
02/12:30am 9.7 5.0 -1.6 45 4.4 S 13 15 7 8 1024.9 1024.6 0.0
02/12:00am 9.1 5.0 -0.5 51 3.8 S 11 13 6 7 1025.1 1024.8 0.0
 
Date/Time
EST
Temp
°C
App
Temp
°C
Dew
Point
Rel
Hum
%
Delta-T
°C
Wind Press
QNH
hPa
Press
MSL
hPa
Rain
since 9 am
mm
Dir
 
Spd
km/h
Gust
km/h
Spd
kts
Gust
kts
01/11:30pm 8.9 4.7 -0.7 51 3.8 SSW 11 11 6 6 1025.1 1024.8 0.0
01/11:00pm 9.4 5.5 -1.3 47 4.1 S 9 9 5 5 1025.0 1024.7 0.0
01/10:30pm 9.7 5.8 -1.6 45 4.4 S 9 11 5 6 1025.0 1024.7 0.0
01/10:00pm 10.8 6.2 -3.7 36 5.4 S 11 11 6 6 1025.0 1024.7 0.0
01/09:30pm 11.6 7.1 -3.3 35 5.7 S 11 13 6 7 1024.8 1024.5 0.0
01/09:00pm 11.2 6.6 -3.7 35 5.6 S 11 11 6 6 1024.7 1024.4 0.0
01/08:30pm 12.5 8.0 -3.3 33 6.1 S 11 13 6 7 1024.5 1024.2 0.0
01/08:00pm 13.4 8.5 -3.4 31 6.5 S 13 13 7 7 1024.3 1024.0 0.0
01/07:30pm 14.6 10.0 -3.7 28 7.1 S 11 13 6 7 1024.0 1023.7 0.0
01/07:00pm 15.4 10.9 -3.5 27 7.4 S 11 15 6 8 1023.4 1023.2 0.0
01/06:30pm 17.4 11.7 -3.9 23 8.5 S 17 24 9 13 1023.0 1022.8 0.0
01/06:00pm 18.5 12.2 -3.6 22 8.9 S 20 32 11 17 1022.9 1022.7 0.0
01/05:30pm 19.4 13.2 -3.5 21 9.4 S 20 30 11 16 1022.8 1022.6 0.0
01/05:00pm 19.9 13.0 -2.4 22 9.4 SSW 24 37 13 20 1022.6 1022.4 0.0
01/04:30pm 20.2 13.4 -1.6 23 9.4 S 24 32 13 17 1022.5 1022.3 0.0
01/04:00pm 20.3 13.6 -0.9 24 9.2 S 24 32 13 17 1022.5 1022.3 0.0
01/03:30pm 20.3 13.7 -0.3 25 9.1 SSE 24 37 13 20 1022.6 1022.4 0.0
01/03:00pm 20.0 13.6 -1.7 23 9.3 S 22 33 12 18 1022.7 1022.5 0.0
01/02:30pm 20.5 14.2 -0.7 24 9.3 S 22 35 12 19 1022.9 1022.7 0.0
01/02:00pm 20.0 13.8 -0.6 25 9.0 S 22 33 12 18 1023.2 1023.0 0.0
01/01:30pm 20.3 14.1 -0.3 25 9.1 S 22 32 12 17 1023.6 1023.4 0.0
01/01:00pm 19.5 12.7 -1.6 24 9.0 S 24 33 13 18 1024.1 1023.8 0.0
01/12:30pm 18.9 12.3 -0.5 27 8.4 S 24 37 13 20 1024.3 1024.0 0.0
01/12:00pm 18.7 12.1 -0.2 28 8.2 SSE 24 33 13 18 1024.6 1024.3 0.0
01/11:30am 18.2 12.7 1.7 33 7.5 S 20 35 11 19 1024.8 1024.5 0.0
01/11:00am 17.3 10.8 0.0 31 7.5 S 24 33 13 18 1025.2 1024.9 0.0
01/10:30am 16.9 10.6 1.8 36 6.8 SSE 24 37 13 20 1025.4 1025.1 0.0
01/10:00am 16.5 9.9 1.8 37 6.5 SSE 26 37 14 20 1025.6 1025.3 0.0
01/09:30am 15.9 9.8 2.7 41 6.0 S 24 33 13 18 1025.5 1025.3 0.0
01/09:00am 15.1 8.5 2.3 42 5.7 SSE 26 37 14 20 1025.4 1025.2 0.0
01/08:30am 14.2 7.0 2.8 46 5.1 S 30 39 16 21 1025.1 1024.9 0.0
01/08:00am 14.1 7.8 3.8 50 4.7 S 26 37 14 20 1024.8 1024.6 0.0
01/07:30am 13.3 8.2 4.2 54 4.2 S 20 30 11 16 1024.5 1024.3 0.0
01/07:00am 12.4 8.7 4.4 58 3.6 S 13 20 7 11 1024.1 1023.9 0.0
01/06:30am 11.2 7.5 4.2 62 3.1 S 13 17 7 9 1023.5 1023.4 0.0
01/06:00am 11.3 7.1 3.8 60 3.3 S 15 20 8 11 1023.0 1022.9 0.0
01/05:30am 11.5 7.2 3.5 58 3.6 S 15 20 8 11 1022.5 1022.4 0.0
01/05:00am 12.2 7.6 3.7 56 3.8 S 17 22 9 12 1022.0 1021.9 0.0
01/04:30am 12.8 7.6 3.5 53 4.2 S 20 30 11 16 1021.6 1021.5 0.0
01/04:00am 13.1 8.0 3.2 51 4.4 S 19 28 10 15 1021.2 1021.1 0.0
01/03:30am 13.7 8.6 4.0 52 4.4 S 20 28 11 15 1020.9 1020.8 0.0
01/03:00am 14.2 9.4 5.6 56 4.1 S 20 30 11 16 1020.7 1020.6 0.0
01/02:30am 14.7 9.6 6.0 56 4.2 S 22 32 12 17 1020.4 1020.3 0.0
01/02:00am 15.3 10.0 6.6 56 4.2 S 24 33 13 18 1020.3 1020.2 0.0
01/01:30am 15.9 10.0 7.4 57 4.2 S 28 39 15 21 1020.1 1020.0 0.0
01/01:00am 16.5 10.6 7.4 55 4.5 S 28 43 15 23 1019.8 1019.7 0.0
01/12:48am 16.8 10.2 7.7 55 4.6 S 32 50 17 27 1019.6 1019.5 0.0
01/12:30am 17.3 10.8 8.2 55 4.7 S 32 44 17 24 1019.3 1019.2 0.0
01/12:14am 17.9 11.1 7.9 52 5.1 S 33 54 18 29 1018.9 1018.8 0.0
01/12:00am 18.9 11.5 6.7 45 6.1 S 35 48 19 26 1018.6 1018.5 0.0
 
Date/Time
EST
Temp
°C
App
Temp
°C
Dew
Point
Rel
Hum
%
Delta-T
°C
Wind Press
QNH
hPa
Press
MSL
hPa
Rain
since 9 am
mm
Dir
 
Spd
km/h
Gust
km/h
Spd
kts
Gust
kts
30/11:37pm 21.0 14.3 3.7 32 8.3 S 28 54 15 29 1017.8 1017.7 0.0
30/11:30pm 21.0 15.4 3.2 31 8.5 SSW 22 35 12 19 1017.5 1017.4 0.0
30/11:00pm 20.8 16.1 3.1 31 8.4 SSW 17 28 9 15 1017.0 1016.9 0.0
30/10:30pm 21.0 16.2 2.8 30 8.6 SW 17 24 9 13 1016.5 1016.4 0.0
30/10:00pm 21.9 17.1 2.6 28 9.1 SW 17 20 9 11 1016.1 1015.9 0.0
30/09:30pm 21.9 17.1 2.6 28 9.1 WSW 17 20 9 11 1015.8 1015.6 0.0
30/09:00pm 22.7 17.9 2.8 27 9.5 WSW 17 20 9 11 1015.3 1015.1 0.0
30/08:30pm 22.0 17.9 4.1 31 8.7 WSW 15 19 8 10 1015.0 1014.8 0.0
30/08:00pm 21.8 17.7 4.4 32 8.5 W 15 15 8 8 1014.4 1014.2 0.0
30/07:30pm 22.8 19.0 3.9 29 9.2 W 13 15 7 8 1013.9 1013.7 0.0
30/07:00pm 25.9 21.5 2.6 22 11.4 W 15 19 8 10 1013.5 1013.3 0.0
30/06:30pm 28.0 21.9 0.7 17 13.1 W 22 30 12 16 1013.1 1012.9 0.0
30/06:00pm 29.5 23.0 0.2 15 14.0 W 24 35 13 19 1012.6 1012.5 0.0
30/05:30pm 30.5 22.8 0.0 14 14.7 W 30 39 16 21 1012.4 1012.3 0.0
30/05:00pm 31.1 22.9 0.5 14 14.9 W 33 46 18 25 1012.2 1012.1 0.0
30/04:48pm 31.2 23.0 0.6 14 14.9 WNW 33 48 18 26 1012.2 1012.1 0.0
30/04:30pm 31.6 26.2 2.7 16 14.7 NW 20 26 11 14 1012.3 1012.2 0.0
30/04:00pm 31.0 24.3 1.4 15 14.6 NW 26 35 14 19 1012.4 1012.3 0.0
30/03:48pm 31.2 23.7 1.5 15 14.7 W 30 48 16 26 1012.4 1012.3 0.0
30/03:30pm 31.2 24.9 1.5 15 14.7 W 24 43 13 23 1012.6 1012.5 0.0
30/03:00pm 31.3 23.9 1.6 15 14.8 W 30 35 16 19 1013.1 1012.9 0.0
30/02:30pm 30.2 24.7 1.6 16 14.1 WNW 20 28 11 15 1013.6 1013.4 0.0
30/02:00pm 30.3 25.9 2.5 17 13.9 W 15 24 8 13 1014.0 1013.8 0.0
30/01:30pm 29.8 24.5 2.1 17 13.8 WSW 19 35 10 19 1014.3 1014.1 0.0
30/01:00pm 29.0 24.8 3.8 20 12.8 SW 15 22 8 12 1015.0 1014.8 0.0
30/12:30pm 28.0 23.4 3.7 21 12.3 W 17 22 9 12 1015.4 1015.2 0.0
30/12:00pm 27.8 24.2 4.8 23 11.8 WSW 13 20 7 11 1015.8 1015.6 0.0
30/11:30am 26.7 23.1 5.1 25 11.1 W 13 19 7 10 1016.1 1015.9 0.0
30/11:00am 26.0 23.5 5.0 26 10.7 SW 7 19 4 10 1016.5 1016.4 0.0
30/10:30am 25.5 21.8 6.2 29 10.0 SSW 15 22 8 12 1016.9 1016.8 0.0
30/10:00am 24.2 19.8 6.5 32 9.2 SSW 19 28 10 15 1017.1 1017.0 0.0
30/09:30am 23.1 18.0 6.0 33 8.7 SSW 22 32 12 17 1016.9 1016.8 0.0
30/09:00am 22.4 17.6 7.4 38 7.8 SSW 22 32 12 17 1016.8 1016.7 0.0
30/08:30am 20.4 15.7 7.7 44 6.6 SSW 22 30 12 16 1016.4 1016.2 0.0
30/08:00am 18.5 15.3 8.5 52 5.2 SW 15 20 8 11 1015.9 1015.7 0.0
30/07:30am 18.2 15.3 8.2 52 5.2 SW 13 20 7 11 1015.5 1015.3 0.0
30/07:00am 16.6 13.2 9.1 61 3.9 WSW 17 19 9 10 1015.4 1015.2 0.0
30/06:30am 16.7 14.0 10.3 66 3.4 W 15 19 8 10 1015.0 1014.8 0.0
30/06:00am 16.7 14.1 10.8 68 3.2 W 15 20 8 11 1014.6 1014.4 0.0
30/05:30am 16.4 14.3 11.1 71 2.9 W 13 17 7 9 1014.1 1013.9 0.0
30/05:00am 16.6 14.9 11.3 71 2.9 NW 11 13 6 7 1013.6 1013.4 0.0
30/04:30am 16.7 14.9 10.8 68 3.2 WNW 11 13 6 7 1013.3 1013.1 0.0
30/04:00am 16.9 16.1 11.0 68 3.2 W 6 19 3 10 1013.4 1013.2 0.0
30/03:30am 17.2 15.2 10.3 64 3.7 WNW 11 13 6 7 1013.0 1012.8 0.0
30/03:00am 18.1 15.8 10.5 61 4.1 NW 13 15 7 8 1013.0 1012.8 0.0
30/02:30am 18.1 15.5 10.7 62 4.0 NW 15 15 8 8 1013.1 1012.9 0.0
30/02:00am 17.6 15.8 10.7 64 3.7 NW 11 13 6 7 1013.4 1013.2 0.0
30/01:30am 17.8 16.0 10.9 64 3.7 NW 11 11 6 6 1013.4 1013.2 0.0
30/01:00am 17.7 16.5 11.5 67 3.4 WNW 9 11 5 6 1013.5 1013.3 0.0
30/12:30am 17.9 16.7 11.5 66 3.5 WNW 9 11 5 6 1013.7 1013.5 0.0
30/12:00am 18.5 16.5 10.1 58 4.5 N 11 13 6 7 1013.9 1013.7 0.0
 
Date/Time
EST
Temp
°C
App
Temp
°C
Dew
Point
Rel
Hum
%
Delta-T
°C
Wind Press
QNH
hPa
Press
MSL
hPa
Rain
since 9 am
mm
Dir
 
Spd
km/h
Gust
km/h
Spd
kts
Gust
kts
29/11:30pm 18.6 16.9 9.9 57 4.6 N 9 11 5 6 1013.8 1013.6 0.0
29/11:00pm 18.8 17.6 10.4 58 4.5 N 7 9 4 5 1013.9 1013.7 0.0
29/10:30pm 18.6 17.4 10.4 59 4.4 N 7 9 4 5 1014.1 1013.9 0.0
29/10:00pm 19.7 18.0 9.9 53 5.3 N 9 13 5 7 1014.0 1013.8 0.0
29/09:30pm 19.0 19.3 10.8 59 4.5 CALM 0 0 0 0 1014.2 1014.0 0.0
29/09:00pm 19.4 19.8 11.4 60 4.4 CALM 0 0 0 0 1014.2 1014.0 0.0
29/08:30pm 19.8 20.3 11.6 59 4.5 CALM 0 0 0 0 1013.9 1013.7 0.0
29/08:00pm 20.5 20.7 10.6 53 5.4 CALM 0 0 0 0 1013.7 1013.5 0.0
29/07:30pm 21.1 21.2 10.0 49 6.0 CALM 0 0 0 0 1013.6 1013.4 0.0
29/07:00pm 22.1 21.3 9.6 45 6.8 NW 4 6 2 3 1013.3 1013.1 0.0
29/06:30pm 24.5 22.5 7.2 33 9.1 NW 7 9 4 5 1013.2 1013.0 0.0
29/06:00pm 26.8 24.9 6.8 28 10.6 NW 6 7 3 4 1013.2 1013.0 0.0
29/05:30pm 26.7 23.6 5.6 26 10.9 NNW 11 15 6 8 1013.0 1012.8 0.0
29/05:00pm 28.0 24.4 5.0 23 11.9 NNW 13 17 7 9 1012.9 1012.7 0.0
29/04:30pm 28.7 25.7 4.2 21 12.5 NW 9 13 5 7 1012.7 1012.6 0.0
29/04:00pm 28.1 24.5 5.0 23 11.9 NNW 13 19 7 10 1012.7 1012.6 0.0
29/03:30pm 28.8 25.5 4.3 21 12.6 WNW 11 17 6 9 1012.9 1012.7 0.0
29/03:00pm 28.0 25.2 3.0 20 12.5 NW 7 13 4 7 1013.0 1012.8 0.0
29/02:30pm 28.4 25.4 4.0 21 12.4 WNW 9 17 5 9 1013.4 1013.2 0.0
29/02:00pm 28.1 25.5 4.4 22 12.1 WSW 7 20 4 11 1013.7 1013.5 0.0
29/01:30pm 26.6 23.8 3.2 22 11.6 NE 7 11 4 6 1014.0 1013.8 0.0
29/01:00pm 26.9 23.5 4.0 23 11.5 ESE 11 17 6 9 1014.3 1014.1 0.0
29/12:30pm 25.3 22.6 3.9 25 10.6 S 7 15 4 8 1014.8 1014.6 0.0

Other Formats:

Comma delimited format used in spreadsheet applications
http://www.bom.gov.au/fwo/IDN60801/IDN60801.95695.axf

JavaScript Object Notation format (JSON) in row-major order
http://www.bom.gov.au/fwo/IDN60801/IDN60801.95695.json